sensor_id;sensor_type;location;lat;lon;timestamp;temperature;humidity
9223;DHT22;7557;51.698;3.942;2023-08-31T00:00:13;15.80;99.90
9223;DHT22;7557;51.698;3.942;2023-08-31T00:02:41;15.90;99.90
9223;DHT22;7557;51.698;3.942;2023-08-31T00:05:09;15.80;99.90
9223;DHT22;7557;51.698;3.942;2023-08-31T00:07:36;15.80;99.90
9223;DHT22;7557;51.698;3.942;2023-08-31T00:10:04;15.70;99.90
9223;DHT22;7557;51.698;3.942;2023-08-31T00:12:36;15.70;99.90
9223;DHT22;7557;51.698;3.942;2023-08-31T00:15:04;15.80;99.90
9223;DHT22;7557;51.698;3.942;2023-08-31T00:17:32;15.80;99.90
9223;DHT22;7557;51.698;3.942;2023-08-31T00:19:59;15.90;99.90
9223;DHT22;7557;51.698;3.942;2023-08-31T00:22:26;15.90;99.90
9223;DHT22;7557;51.698;3.942;2023-08-31T00:24:54;16.00;99.90
9223;DHT22;7557;51.698;3.942;2023-08-31T00:27:21;16.00;99.90
9223;DHT22;7557;51.698;3.942;2023-08-31T00:29:50;16.00;99.90
9223;DHT22;7557;51.698;3.942;2023-08-31T00:32:17;16.00;99.90
9223;DHT22;7557;51.698;3.942;2023-08-31T00:34:48;16.00;99.90
9223;DHT22;7557;51.698;3.942;2023-08-31T00:37:15;15.90;99.90
9223;DHT22;7557;51.698;3.942;2023-08-31T00:39:42;15.80;99.90
9223;DHT22;7557;51.698;3.942;2023-08-31T00:42:10;15.70;99.90
9223;DHT22;7557;51.698;3.942;2023-08-31T00:44:37;15.70;99.90
9223;DHT22;7557;51.698;3.942;2023-08-31T00:47:19;15.70;99.90
9223;DHT22;7557;51.698;3.942;2023-08-31T00:49:47;15.70;99.90
9223;DHT22;7557;51.698;3.942;2023-08-31T00:52:15;15.80;99.90
9223;DHT22;7557;51.698;3.942;2023-08-31T00:54:42;15.80;99.90
9223;DHT22;7557;51.698;3.942;2023-08-31T00:57:09;15.90;99.90
9223;DHT22;7557;51.698;3.942;2023-08-31T00:59:37;15.90;99.90
9223;DHT22;7557;51.698;3.942;2023-08-31T01:02:09;16.00;99.90
9223;DHT22;7557;51.698;3.942;2023-08-31T01:04:50;16.00;99.90
9223;DHT22;7557;51.698;3.942;2023-08-31T01:07:28;16.10;99.90
9223;DHT22;7557;51.698;3.942;2023-08-31T01:10:02;16.10;99.90
9223;DHT22;7557;51.698;3.942;2023-08-31T01:12:36;16.10;99.90
9223;DHT22;7557;51.698;3.942;2023-08-31T01:15:04;16.10;99.90
9223;DHT22;7557;51.698;3.942;2023-08-31T01:17:37;16.10;99.90
9223;DHT22;7557;51.698;3.942;2023-08-31T01:20:08;16.10;99.90
9223;DHT22;7557;51.698;3.942;2023-08-31T01:22:40;16.00;99.90
9223;DHT22;7557;51.698;3.942;2023-08-31T01:25:12;16.00;99.90
9223;DHT22;7557;51.698;3.942;2023-08-31T01:27:40;15.90;99.90
9223;DHT22;7557;51.698;3.942;2023-08-31T01:30:08;15.90;99.90
9223;DHT22;7557;51.698;3.942;2023-08-31T01:32:36;15.90;99.90
9223;DHT22;7557;51.698;3.942;2023-08-31T01:35:05;15.90;99.90
9223;DHT22;7557;51.698;3.942;2023-08-31T01:37:38;15.80;99.90
9223;DHT22;7557;51.698;3.942;2023-08-31T01:40:14;15.80;99.90
9223;DHT22;7557;51.698;3.942;2023-08-31T01:42:45;15.80;99.90
9223;DHT22;7557;51.698;3.942;2023-08-31T01:45:15;15.80;99.90
9223;DHT22;7557;51.698;3.942;2023-08-31T01:47:44;15.80;99.90
9223;DHT22;7557;51.698;3.942;2023-08-31T01:50:11;15.80;99.90
9223;DHT22;7557;51.698;3.942;2023-08-31T01:52:39;15.80;99.90
9223;DHT22;7557;51.698;3.942;2023-08-31T01:55:07;15.80;99.90
9223;DHT22;7557;51.698;3.942;2023-08-31T01:57:36;15.80;99.90
9223;DHT22;7557;51.698;3.942;2023-08-31T02:00:03;15.80;99.90
9223;DHT22;7557;51.698;3.942;2023-08-31T02:02:31;15.80;99.90
9223;DHT22;7557;51.698;3.942;2023-08-31T02:04:58;15.80;99.90
9223;DHT22;7557;51.698;3.942;2023-08-31T02:07:27;15.80;99.90
9223;DHT22;7557;51.698;3.942;2023-08-31T02:09:54;15.80;99.90
9223;DHT22;7557;51.698;3.942;2023-08-31T02:12:22;15.80;99.90
9223;DHT22;7557;51.698;3.942;2023-08-31T02:14:50;15.80;99.90
9223;DHT22;7557;51.698;3.942;2023-08-31T02:17:18;15.80;99.90
9223;DHT22;7557;51.698;3.942;2023-08-31T02:19:45;15.90;99.90
9223;DHT22;7557;51.698;3.942;2023-08-31T02:22:12;15.80;99.90
9223;DHT22;7557;51.698;3.942;2023-08-31T02:24:39;15.80;99.90
9223;DHT22;7557;51.698;3.942;2023-08-31T02:27:06;15.90;99.90
9223;DHT22;7557;51.698;3.942;2023-08-31T02:29:33;15.90;99.90
9223;DHT22;7557;51.698;3.942;2023-08-31T02:32:04;15.90;99.90
9223;DHT22;7557;51.698;3.942;2023-08-31T02:34:31;15.90;99.90
9223;DHT22;7557;51.698;3.942;2023-08-31T02:36:58;15.90;99.90
9223;DHT22;7557;51.698;3.942;2023-08-31T02:39:26;15.90;99.90
9223;DHT22;7557;51.698;3.942;2023-08-31T02:41:53;15.90;99.90
9223;DHT22;7557;51.698;3.942;2023-08-31T02:44:20;15.90;99.90
9223;DHT22;7557;51.698;3.942;2023-08-31T02:46:47;15.90;99.90
9223;DHT22;7557;51.698;3.942;2023-08-31T02:49:16;15.80;99.90
9223;DHT22;7557;51.698;3.942;2023-08-31T02:51:43;15.80;99.90
9223;DHT22;7557;51.698;3.942;2023-08-31T02:54:10;15.80;99.90
9223;DHT22;7557;51.698;3.942;2023-08-31T02:56:38;15.80;99.90
9223;DHT22;7557;51.698;3.942;2023-08-31T02:59:05;15.80;99.90
9223;DHT22;7557;51.698;3.942;2023-08-31T03:01:32;15.70;99.90
9223;DHT22;7557;51.698;3.942;2023-08-31T03:03:59;15.70;99.90
9223;DHT22;7557;51.698;3.942;2023-08-31T03:06:28;15.70;99.90
9223;DHT22;7557;51.698;3.942;2023-08-31T03:08:55;15.60;99.90
9223;DHT22;7557;51.698;3.942;2023-08-31T03:11:22;15.60;99.90
9223;DHT22;7557;51.698;3.942;2023-08-31T03:13:50;15.60;99.90
9223;DHT22;7557;51.698;3.942;2023-08-31T03:16:18;15.70;99.90
9223;DHT22;7557;51.698;3.942;2023-08-31T03:18:45;15.60;99.90
9223;DHT22;7557;51.698;3.942;2023-08-31T03:21:12;15.60;99.90
9223;DHT22;7557;51.698;3.942;2023-08-31T03:23:41;15.60;99.90
9223;DHT22;7557;51.698;3.942;2023-08-31T03:26:08;15.60;99.90
9223;DHT22;7557;51.698;3.942;2023-08-31T03:28:35;15.60;99.90
9223;DHT22;7557;51.698;3.942;2023-08-31T03:31:04;15.60;99.90
9223;DHT22;7557;51.698;3.942;2023-08-31T03:33:31;15.50;99.90
9223;DHT22;7557;51.698;3.942;2023-08-31T03:36:00;15.50;99.90
9223;DHT22;7557;51.698;3.942;2023-08-31T03:38:30;15.40;99.90
9223;DHT22;7557;51.698;3.942;2023-08-31T03:40:58;15.40;99.90
9223;DHT22;7557;51.698;3.942;2023-08-31T03:43:26;15.40;99.90
9223;DHT22;7557;51.698;3.942;2023-08-31T03:45:57;15.30;99.90
9223;DHT22;7557;51.698;3.942;2023-08-31T03:48:25;15.30;99.90
9223;DHT22;7557;51.698;3.942;2023-08-31T03:50:53;15.30;99.90
9223;DHT22;7557;51.698;3.942;2023-08-31T03:53:20;15.30;99.90
9223;DHT22;7557;51.698;3.942;2023-08-31T03:55:47;15.30;99.90
9223;DHT22;7557;51.698;3.942;2023-08-31T03:58:16;15.30;99.90
9223;DHT22;7557;51.698;3.942;2023-08-31T04:00:43;15.40;99.90
9223;DHT22;7557;51.698;3.942;2023-08-31T04:03:11;15.40;99.90
9223;DHT22;7557;51.698;3.942;2023-08-31T04:05:38;15.30;99.90
9223;DHT22;7557;51.698;3.942;2023-08-31T04:08:06;15.40;99.90
9223;DHT22;7557;51.698;3.942;2023-08-31T04:10:33;15.40;99.90
9223;DHT22;7557;51.698;3.942;2023-08-31T04:13:00;15.30;99.90
9223;DHT22;7557;51.698;3.942;2023-08-31T04:15:29;15.40;99.90
9223;DHT22;7557;51.698;3.942;2023-08-31T04:17:56;15.40;99.90
9223;DHT22;7557;51.698;3.942;2023-08-31T04:20:24;15.30;99.90
9223;DHT22;7557;51.698;3.942;2023-08-31T04:22:51;15.40;99.90
9223;DHT22;7557;51.698;3.942;2023-08-31T04:25:18;15.40;99.90
9223;DHT22;7557;51.698;3.942;2023-08-31T04:27:46;15.40;99.90
9223;DHT22;7557;51.698;3.942;2023-08-31T04:30:13;15.40;99.90
9223;DHT22;7557;51.698;3.942;2023-08-31T04:32:43;15.40;99.90
9223;DHT22;7557;51.698;3.942;2023-08-31T04:35:12;15.40;99.90
9223;DHT22;7557;51.698;3.942;2023-08-31T04:37:40;15.40;99.90
9223;DHT22;7557;51.698;3.942;2023-08-31T04:40:08;15.40;99.90
9223;DHT22;7557;51.698;3.942;2023-08-31T04:42:38;15.40;99.90
9223;DHT22;7557;51.698;3.942;2023-08-31T04:45:07;15.40;99.90
9223;DHT22;7557;51.698;3.942;2023-08-31T04:47:34;15.40;99.90
9223;DHT22;7557;51.698;3.942;2023-08-31T04:50:03;15.40;99.90
9223;DHT22;7557;51.698;3.942;2023-08-31T04:52:32;15.30;99.90
9223;DHT22;7557;51.698;3.942;2023-08-31T04:55:00;15.30;99.90
9223;DHT22;7557;51.698;3.942;2023-08-31T04:57:29;15.30;99.90
9223;DHT22;7557;51.698;3.942;2023-08-31T04:59:56;15.30;99.90
9223;DHT22;7557;51.698;3.942;2023-08-31T05:02:23;15.30;99.90
9223;DHT22;7557;51.698;3.942;2023-08-31T05:04:54;15.20;99.90
9223;DHT22;7557;51.698;3.942;2023-08-31T05:07:23;15.20;99.90
9223;DHT22;7557;51.698;3.942;2023-08-31T05:09:50;15.20;99.90
9223;DHT22;7557;51.698;3.942;2023-08-31T05:12:17;15.20;99.90
9223;DHT22;7557;51.698;3.942;2023-08-31T05:14:45;15.10;99.90
9223;DHT22;7557;51.698;3.942;2023-08-31T05:17:12;14.90;99.90
9223;DHT22;7557;51.698;3.942;2023-08-31T05:19:39;14.90;99.90
9223;DHT22;7557;51.698;3.942;2023-08-31T05:22:07;14.80;99.90
9223;DHT22;7557;51.698;3.942;2023-08-31T05:24:36;14.90;99.90
9223;DHT22;7557;51.698;3.942;2023-08-31T05:27:03;15.00;99.90
9223;DHT22;7557;51.698;3.942;2023-08-31T05:29:30;15.10;99.90
9223;DHT22;7557;51.698;3.942;2023-08-31T05:31:58;15.20;99.90
9223;DHT22;7557;51.698;3.942;2023-08-31T05:34:26;15.20;99.90
9223;DHT22;7557;51.698;3.942;2023-08-31T05:36:53;15.20;99.90
9223;DHT22;7557;51.698;3.942;2023-08-31T05:39:20;15.20;99.90
9223;DHT22;7557;51.698;3.942;2023-08-31T05:41:49;15.20;99.90
9223;DHT22;7557;51.698;3.942;2023-08-31T05:44:16;15.30;99.90
9223;DHT22;7557;51.698;3.942;2023-08-31T05:46:44;15.30;99.90
9223;DHT22;7557;51.698;3.942;2023-08-31T05:49:11;15.40;99.90
9223;DHT22;7557;51.698;3.942;2023-08-31T05:51:38;15.50;99.90
9223;DHT22;7557;51.698;3.942;2023-08-31T05:54:06;15.60;99.90
9223;DHT22;7557;51.698;3.942;2023-08-31T05:56:38;15.70;99.90
9223;DHT22;7557;51.698;3.942;2023-08-31T05:59:07;15.80;99.90
9223;DHT22;7557;51.698;3.942;2023-08-31T06:01:35;15.90;99.90
9223;DHT22;7557;51.698;3.942;2023-08-31T06:04:02;16.00;99.90
9223;DHT22;7557;51.698;3.942;2023-08-31T06:06:31;16.10;99.90
9223;DHT22;7557;51.698;3.942;2023-08-31T06:08:59;16.30;99.90
9223;DHT22;7557;51.698;3.942;2023-08-31T06:11:27;16.40;99.90
9223;DHT22;7557;51.698;3.942;2023-08-31T06:13:54;16.60;99.90
9223;DHT22;7557;51.698;3.942;2023-08-31T06:16:23;16.70;99.90
9223;DHT22;7557;51.698;3.942;2023-08-31T06:18:52;16.90;99.90
9223;DHT22;7557;51.698;3.942;2023-08-31T06:21:19;17.00;99.90
9223;DHT22;7557;51.698;3.942;2023-08-31T06:23:46;17.20;99.90
9223;DHT22;7557;51.698;3.942;2023-08-31T06:26:13;17.30;99.90
9223;DHT22;7557;51.698;3.942;2023-08-31T06:28:41;17.40;99.90
9223;DHT22;7557;51.698;3.942;2023-08-31T06:31:08;17.50;99.90
9223;DHT22;7557;51.698;3.942;2023-08-31T06:33:37;17.60;99.90
9223;DHT22;7557;51.698;3.942;2023-08-31T06:36:04;17.60;99.90
9223;DHT22;7557;51.698;3.942;2023-08-31T06:38:32;17.70;99.90
9223;DHT22;7557;51.698;3.942;2023-08-31T06:41:01;17.80;99.90
9223;DHT22;7557;51.698;3.942;2023-08-31T06:43:29;17.90;99.90
9223;DHT22;7557;51.698;3.942;2023-08-31T06:45:56;18.00;99.90
9223;DHT22;7557;51.698;3.942;2023-08-31T06:48:23;18.00;99.90
9223;DHT22;7557;51.698;3.942;2023-08-31T06:50:52;18.10;99.90
9223;DHT22;7557;51.698;3.942;2023-08-31T06:53:20;18.20;99.90
9223;DHT22;7557;51.698;3.942;2023-08-31T06:55:47;18.30;99.90
9223;DHT22;7557;51.698;3.942;2023-08-31T06:58:15;18.30;99.90
9223;DHT22;7557;51.698;3.942;2023-08-31T07:00:42;18.40;99.90
9223;DHT22;7557;51.698;3.942;2023-08-31T07:03:09;18.50;99.90
9223;DHT22;7557;51.698;3.942;2023-08-31T07:05:41;18.50;99.90
9223;DHT22;7557;51.698;3.942;2023-08-31T07:08:10;18.60;99.90
9223;DHT22;7557;51.698;3.942;2023-08-31T07:10:37;18.60;99.90
9223;DHT22;7557;51.698;3.942;2023-08-31T07:13:05;18.60;99.90
9223;DHT22;7557;51.698;3.942;2023-08-31T07:15:34;18.70;99.90
9223;DHT22;7557;51.698;3.942;2023-08-31T07:18:01;18.70;99.90
9223;DHT22;7557;51.698;3.942;2023-08-31T07:20:28;18.80;99.90
9223;DHT22;7557;51.698;3.942;2023-08-31T07:22:55;18.90;99.90
9223;DHT22;7557;51.698;3.942;2023-08-31T07:25:24;19.00;99.90
9223;DHT22;7557;51.698;3.942;2023-08-31T07:27:51;19.10;99.90
9223;DHT22;7557;51.698;3.942;2023-08-31T07:30:19;19.10;99.90
9223;DHT22;7557;51.698;3.942;2023-08-31T07:32:46;19.20;99.90
9223;DHT22;7557;51.698;3.942;2023-08-31T07:35:14;19.30;99.90
9223;DHT22;7557;51.698;3.942;2023-08-31T07:37:41;19.40;99.90
9223;DHT22;7557;51.698;3.942;2023-08-31T07:40:09;19.50;99.90
9223;DHT22;7557;51.698;3.942;2023-08-31T07:42:38;19.70;99.90
9223;DHT22;7557;51.698;3.942;2023-08-31T07:45:06;19.80;99.90
9223;DHT22;7557;51.698;3.942;2023-08-31T07:47:34;19.90;99.90
9223;DHT22;7557;51.698;3.942;2023-08-31T07:50:01;19.90;99.90
9223;DHT22;7557;51.698;3.942;2023-08-31T07:52:29;19.90;99.90
9223;DHT22;7557;51.698;3.942;2023-08-31T07:54:56;20.00;99.90
9223;DHT22;7557;51.698;3.942;2023-08-31T07:57:23;20.00;99.90
9223;DHT22;7557;51.698;3.942;2023-08-31T07:59:53;20.00;99.90
9223;DHT22;7557;51.698;3.942;2023-08-31T08:02:20;19.90;99.90
9223;DHT22;7557;51.698;3.942;2023-08-31T08:04:47;20.00;99.90
9223;DHT22;7557;51.698;3.942;2023-08-31T08:07:15;20.10;99.90
9223;DHT22;7557;51.698;3.942;2023-08-31T08:09:42;20.20;99.90
9223;DHT22;7557;51.698;3.942;2023-08-31T08:12:09;20.40;99.90
9223;DHT22;7557;51.698;3.942;2023-08-31T08:14:37;20.60;99.90
9223;DHT22;7557;51.698;3.942;2023-08-31T08:17:05;20.70;99.90
9223;DHT22;7557;51.698;3.942;2023-08-31T08:19:33;20.80;99.90
9223;DHT22;7557;51.698;3.942;2023-08-31T08:22:00;21.00;99.90
9223;DHT22;7557;51.698;3.942;2023-08-31T08:24:30;21.20;99.90
9223;DHT22;7557;51.698;3.942;2023-08-31T08:26:57;21.30;99.90
9223;DHT22;7557;51.698;3.942;2023-08-31T08:29:25;21.40;99.90
9223;DHT22;7557;51.698;3.942;2023-08-31T08:31:52;21.50;99.90
9223;DHT22;7557;51.698;3.942;2023-08-31T08:34:23;21.50;99.90
9223;DHT22;7557;51.698;3.942;2023-08-31T08:36:50;21.80;99.90
9223;DHT22;7557;51.698;3.942;2023-08-31T08:39:18;22.10;99.90
9223;DHT22;7557;51.698;3.942;2023-08-31T08:41:45;22.40;99.90
9223;DHT22;7557;51.698;3.942;2023-08-31T08:44:15;22.60;99.90
9223;DHT22;7557;51.698;3.942;2023-08-31T08:46:44;22.70;99.90
9223;DHT22;7557;51.698;3.942;2023-08-31T08:49:13;22.40;99.90
9223;DHT22;7557;51.698;3.942;2023-08-31T08:51:46;21.90;99.90
9223;DHT22;7557;51.698;3.942;2023-08-31T08:54:13;21.40;99.90
9223;DHT22;7557;51.698;3.942;2023-08-31T08:56:41;21.10;99.90
9223;DHT22;7557;51.698;3.942;2023-08-31T08:59:08;21.00;99.90
9223;DHT22;7557;51.698;3.942;2023-08-31T09:01:38;21.00;99.90
9223;DHT22;7557;51.698;3.942;2023-08-31T09:04:06;21.20;99.90
9223;DHT22;7557;51.698;3.942;2023-08-31T09:06:34;21.40;99.90
9223;DHT22;7557;51.698;3.942;2023-08-31T09:09:02;21.50;99.90
9223;DHT22;7557;51.698;3.942;2023-08-31T09:11:30;21.30;99.90
9223;DHT22;7557;51.698;3.942;2023-08-31T09:13:57;20.90;99.90
9223;DHT22;7557;51.698;3.942;2023-08-31T09:16:26;20.70;99.90
9223;DHT22;7557;51.698;3.942;2023-08-31T09:18:54;20.60;99.90
9223;DHT22;7557;51.698;3.942;2023-08-31T09:21:21;20.60;99.90
9223;DHT22;7557;51.698;3.942;2023-08-31T09:23:56;20.60;99.90
9223;DHT22;7557;51.698;3.942;2023-08-31T09:26:28;20.40;99.90
9223;DHT22;7557;51.698;3.942;2023-08-31T09:28:55;20.20;99.90
9223;DHT22;7557;51.698;3.942;2023-08-31T09:31:29;20.20;99.90
9223;DHT22;7557;51.698;3.942;2023-08-31T09:33:56;20.30;99.90
9223;DHT22;7557;51.698;3.942;2023-08-31T09:36:24;20.30;99.90
9223;DHT22;7557;51.698;3.942;2023-08-31T09:38:51;20.20;99.90
9223;DHT22;7557;51.698;3.942;2023-08-31T09:41:19;20.40;99.90
9223;DHT22;7557;51.698;3.942;2023-08-31T09:43:48;20.60;99.90
9223;DHT22;7557;51.698;3.942;2023-08-31T09:46:15;20.60;99.90
9223;DHT22;7557;51.698;3.942;2023-08-31T09:48:43;20.70;99.90
9223;DHT22;7557;51.698;3.942;2023-08-31T09:51:10;21.10;99.90
9223;DHT22;7557;51.698;3.942;2023-08-31T09:53:38;21.40;99.90
9223;DHT22;7557;51.698;3.942;2023-08-31T09:56:06;21.40;99.90
9223;DHT22;7557;51.698;3.942;2023-08-31T09:58:34;21.30;99.90
9223;DHT22;7557;51.698;3.942;2023-08-31T10:01:03;21.10;99.90
9223;DHT22;7557;51.698;3.942;2023-08-31T10:03:30;21.40;99.90
9223;DHT22;7557;51.698;3.942;2023-08-31T10:05:58;21.60;99.90
9223;DHT22;7557;51.698;3.942;2023-08-31T10:08:27;21.70;99.90
9223;DHT22;7557;51.698;3.942;2023-08-31T10:10:59;21.80;99.90
9223;DHT22;7557;51.698;3.942;2023-08-31T10:13:31;22.00;99.90
9223;DHT22;7557;51.698;3.942;2023-08-31T10:16:04;22.00;99.90
9223;DHT22;7557;51.698;3.942;2023-08-31T10:18:34;21.90;99.90
9223;DHT22;7557;51.698;3.942;2023-08-31T10:21:02;21.90;99.90
9223;DHT22;7557;51.698;3.942;2023-08-31T10:23:29;21.80;99.90
9223;DHT22;7557;51.698;3.942;2023-08-31T10:26:01;21.80;99.90
9223;DHT22;7557;51.698;3.942;2023-08-31T10:28:29;21.70;99.90
9223;DHT22;7557;51.698;3.942;2023-08-31T10:31:05;21.60;99.90
9223;DHT22;7557;51.698;3.942;2023-08-31T10:33:33;21.60;99.90
9223;DHT22;7557;51.698;3.942;2023-08-31T10:36:01;21.60;99.90
9223;DHT22;7557;51.698;3.942;2023-08-31T10:38:30;21.70;99.90
9223;DHT22;7557;51.698;3.942;2023-08-31T10:41:20;21.70;99.90
9223;DHT22;7557;51.698;3.942;2023-08-31T10:43:49;21.90;99.90
9223;DHT22;7557;51.698;3.942;2023-08-31T10:46:25;21.90;99.90
9223;DHT22;7557;51.698;3.942;2023-08-31T10:48:55;22.00;99.90
9223;DHT22;7557;51.698;3.942;2023-08-31T10:51:26;22.20;99.90
9223;DHT22;7557;51.698;3.942;2023-08-31T10:54:08;22.30;99.90
9223;DHT22;7557;51.698;3.942;2023-08-31T10:57:02;22.40;99.90
9223;DHT22;7557;51.698;3.942;2023-08-31T10:59:47;22.30;99.90
9223;DHT22;7557;51.698;3.942;2023-08-31T11:02:30;22.40;99.90
9223;DHT22;7557;51.698;3.942;2023-08-31T11:05:06;22.70;99.90
9223;DHT22;7557;51.698;3.942;2023-08-31T11:07:34;23.20;99.90
9223;DHT22;7557;51.698;3.942;2023-08-31T11:10:14;23.40;99.90
9223;DHT22;7557;51.698;3.942;2023-08-31T11:12:44;23.50;99.80
9223;DHT22;7557;51.698;3.942;2023-08-31T11:15:12;23.50;99.70
9223;DHT22;7557;51.698;3.942;2023-08-31T11:17:42;23.50;99.60
9223;DHT22;7557;51.698;3.942;2023-08-31T11:20:13;23.30;99.50
9223;DHT22;7557;51.698;3.942;2023-08-31T11:22:43;23.20;99.60
9223;DHT22;7557;51.698;3.942;2023-08-31T11:25:12;23.00;99.80
9223;DHT22;7557;51.698;3.942;2023-08-31T11:27:40;22.80;99.90
9223;DHT22;7557;51.698;3.942;2023-08-31T11:30:14;22.70;99.90
9223;DHT22;7557;51.698;3.942;2023-08-31T11:32:47;22.80;99.90
9223;DHT22;7557;51.698;3.942;2023-08-31T11:35:15;22.80;99.90
9223;DHT22;7557;51.698;3.942;2023-08-31T11:37:43;22.80;99.90
9223;DHT22;7557;51.698;3.942;2023-08-31T11:40:11;22.80;99.90
9223;DHT22;7557;51.698;3.942;2023-08-31T11:42:41;23.00;99.90
9223;DHT22;7557;51.698;3.942;2023-08-31T11:45:10;23.20;99.90
9223;DHT22;7557;51.698;3.942;2023-08-31T11:47:38;23.50;99.90
9223;DHT22;7557;51.698;3.942;2023-08-31T11:50:08;23.80;99.60
9223;DHT22;7557;51.698;3.942;2023-08-31T11:52:37;23.70;99.30
9223;DHT22;7557;51.698;3.942;2023-08-31T11:55:10;23.70;99.50
9223;DHT22;7557;51.698;3.942;2023-08-31T11:57:37;23.90;99.60
9223;DHT22;7557;51.698;3.942;2023-08-31T12:00:06;23.90;98.80
9223;DHT22;7557;51.698;3.942;2023-08-31T12:02:36;23.80;99.00
9223;DHT22;7557;51.698;3.942;2023-08-31T12:05:04;23.80;98.70
9223;DHT22;7557;51.698;3.942;2023-08-31T12:07:39;23.80;99.00
9223;DHT22;7557;51.698;3.942;2023-08-31T12:10:07;24.00;98.60
9223;DHT22;7557;51.698;3.942;2023-08-31T12:12:35;23.90;98.00
9223;DHT22;7557;51.698;3.942;2023-08-31T12:15:03;23.60;98.20
9223;DHT22;7557;51.698;3.942;2023-08-31T12:17:37;23.30;99.00
9223;DHT22;7557;51.698;3.942;2023-08-31T12:20:06;23.50;99.20
9223;DHT22;7557;51.698;3.942;2023-08-31T12:22:37;23.50;99.20
9223;DHT22;7557;51.698;3.942;2023-08-31T12:25:04;23.80;99.20
9223;DHT22;7557;51.698;3.942;2023-08-31T12:27:34;24.00;98.20
9223;DHT22;7557;51.698;3.942;2023-08-31T12:30:02;24.00;98.60
9223;DHT22;7557;51.698;3.942;2023-08-31T12:32:29;24.10;98.20
9223;DHT22;7557;51.698;3.942;2023-08-31T12:34:57;24.20;98.10
9223;DHT22;7557;51.698;3.942;2023-08-31T12:37:24;24.30;97.80
9223;DHT22;7557;51.698;3.942;2023-08-31T12:39:53;24.40;98.00
9223;DHT22;7557;51.698;3.942;2023-08-31T12:42:20;24.50;97.90
9223;DHT22;7557;51.698;3.942;2023-08-31T12:44:47;24.60;97.20
9223;DHT22;7557;51.698;3.942;2023-08-31T12:47:15;24.60;97.60
9223;DHT22;7557;51.698;3.942;2023-08-31T12:49:42;24.70;97.50
9223;DHT22;7557;51.698;3.942;2023-08-31T12:52:09;24.80;97.40
9223;DHT22;7557;51.698;3.942;2023-08-31T12:54:36;24.90;97.20
9223;DHT22;7557;51.698;3.942;2023-08-31T12:57:05;24.90;96.90
9223;DHT22;7557;51.698;3.942;2023-08-31T12:59:33;24.90;96.60
9223;DHT22;7557;51.698;3.942;2023-08-31T13:02:00;24.80;96.70
9223;DHT22;7557;51.698;3.942;2023-08-31T13:04:29;24.80;96.80
9223;DHT22;7557;51.698;3.942;2023-08-31T13:06:56;24.60;96.60
9223;DHT22;7557;51.698;3.942;2023-08-31T13:09:25;24.50;97.30
9223;DHT22;7557;51.698;3.942;2023-08-31T13:11:53;24.50;97.60
9223;DHT22;7557;51.698;3.942;2023-08-31T13:14:22;24.60;97.50
9223;DHT22;7557;51.698;3.942;2023-08-31T13:16:50;24.50;97.30
9223;DHT22;7557;51.698;3.942;2023-08-31T13:19:17;24.30;96.90
9223;DHT22;7557;51.698;3.942;2023-08-31T13:21:45;23.90;97.00
9223;DHT22;7557;51.698;3.942;2023-08-31T13:24:13;23.70;97.30
9223;DHT22;7557;51.698;3.942;2023-08-31T13:26:41;23.60;97.30
9223;DHT22;7557;51.698;3.942;2023-08-31T13:29:13;23.50;97.40
9223;DHT22;7557;51.698;3.942;2023-08-31T13:31:42;23.30;97.50
9223;DHT22;7557;51.698;3.942;2023-08-31T13:34:09;23.30;97.90
9223;DHT22;7557;51.698;3.942;2023-08-31T13:36:37;23.30;98.00
9223;DHT22;7557;51.698;3.942;2023-08-31T13:39:04;23.10;98.20
9223;DHT22;7557;51.698;3.942;2023-08-31T13:41:33;22.80;98.60
9223;DHT22;7557;51.698;3.942;2023-08-31T13:44:00;22.60;99.00
9223;DHT22;7557;51.698;3.942;2023-08-31T13:46:28;22.40;99.20
9223;DHT22;7557;51.698;3.942;2023-08-31T13:48:58;22.30;99.40
9223;DHT22;7557;51.698;3.942;2023-08-31T13:51:27;22.30;99.90
9223;DHT22;7557;51.698;3.942;2023-08-31T13:53:55;22.30;99.70
9223;DHT22;7557;51.698;3.942;2023-08-31T13:56:22;22.40;99.70
9223;DHT22;7557;51.698;3.942;2023-08-31T13:58:49;22.60;99.40
9223;DHT22;7557;51.698;3.942;2023-08-31T14:01:17;22.80;99.00
9223;DHT22;7557;51.698;3.942;2023-08-31T14:03:45;22.90;99.00
9223;DHT22;7557;51.698;3.942;2023-08-31T14:06:16;22.90;99.00
9223;DHT22;7557;51.698;3.942;2023-08-31T14:08:44;22.90;98.70
9223;DHT22;7557;51.698;3.942;2023-08-31T14:11:11;22.70;99.10
9223;DHT22;7557;51.698;3.942;2023-08-31T14:13:38;22.70;98.90
9223;DHT22;7557;51.698;3.942;2023-08-31T14:16:07;22.60;99.00
9223;DHT22;7557;51.698;3.942;2023-08-31T14:18:35;22.50;99.30
9223;DHT22;7557;51.698;3.942;2023-08-31T14:21:02;22.50;99.20
9223;DHT22;7557;51.698;3.942;2023-08-31T14:23:31;22.40;98.90
9223;DHT22;7557;51.698;3.942;2023-08-31T14:26:01;22.20;99.30
9223;DHT22;7557;51.698;3.942;2023-08-31T14:28:28;22.00;99.40
9223;DHT22;7557;51.698;3.942;2023-08-31T14:30:56;21.90;99.70
9223;DHT22;7557;51.698;3.942;2023-08-31T14:33:23;21.80;99.60
9223;DHT22;7557;51.698;3.942;2023-08-31T14:35:50;21.70;99.60
9223;DHT22;7557;51.698;3.942;2023-08-31T14:38:20;21.80;99.90
9223;DHT22;7557;51.698;3.942;2023-08-31T14:40:50;21.90;99.90
9223;DHT22;7557;51.698;3.942;2023-08-31T14:43:18;22.00;99.90
9223;DHT22;7557;51.698;3.942;2023-08-31T14:45:47;22.10;99.90
9223;DHT22;7557;51.698;3.942;2023-08-31T14:48:15;22.10;99.50
9223;DHT22;7557;51.698;3.942;2023-08-31T14:50:43;22.10;99.40
9223;DHT22;7557;51.698;3.942;2023-08-31T14:53:10;22.20;99.50
9223;DHT22;7557;51.698;3.942;2023-08-31T14:55:37;22.20;99.60
9223;DHT22;7557;51.698;3.942;2023-08-31T14:58:06;22.30;99.80
9223;DHT22;7557;51.698;3.942;2023-08-31T15:00:35;22.40;99.50
9223;DHT22;7557;51.698;3.942;2023-08-31T15:03:02;22.20;99.50
9223;DHT22;7557;51.698;3.942;2023-08-31T15:05:30;22.20;99.70
9223;DHT22;7557;51.698;3.942;2023-08-31T15:07:57;22.20;99.90
9223;DHT22;7557;51.698;3.942;2023-08-31T15:10:26;22.20;99.80
9223;DHT22;7557;51.698;3.942;2023-08-31T15:12:53;22.20;99.70
9223;DHT22;7557;51.698;3.942;2023-08-31T15:15:26;22.10;99.60
9223;DHT22;7557;51.698;3.942;2023-08-31T15:17:53;22.10;99.60
9223;DHT22;7557;51.698;3.942;2023-08-31T15:20:21;22.20;99.60
9223;DHT22;7557;51.698;3.942;2023-08-31T15:22:48;22.30;99.60
9223;DHT22;7557;51.698;3.942;2023-08-31T15:25:15;22.30;99.70
9223;DHT22;7557;51.698;3.942;2023-08-31T15:27:43;22.20;99.40
9223;DHT22;7557;51.698;3.942;2023-08-31T15:30:11;22.20;99.80
9223;DHT22;7557;51.698;3.942;2023-08-31T15:32:40;22.20;99.80
9223;DHT22;7557;51.698;3.942;2023-08-31T15:35:08;22.00;99.90
9223;DHT22;7557;51.698;3.942;2023-08-31T15:37:35;21.90;99.90
9223;DHT22;7557;51.698;3.942;2023-08-31T15:40:03;21.80;99.90
9223;DHT22;7557;51.698;3.942;2023-08-31T15:42:30;21.80;99.90
9223;DHT22;7557;51.698;3.942;2023-08-31T15:45:01;21.80;99.90
9223;DHT22;7557;51.698;3.942;2023-08-31T15:47:29;21.80;99.90
9223;DHT22;7557;51.698;3.942;2023-08-31T15:49:57;21.80;99.90
9223;DHT22;7557;51.698;3.942;2023-08-31T15:52:24;21.90;99.90
9223;DHT22;7557;51.698;3.942;2023-08-31T15:54:52;21.90;99.90
9223;DHT22;7557;51.698;3.942;2023-08-31T15:57:22;22.00;99.90
9223;DHT22;7557;51.698;3.942;2023-08-31T15:59:49;22.10;99.90
9223;DHT22;7557;51.698;3.942;2023-08-31T16:02:16;22.20;99.90
9223;DHT22;7557;51.698;3.942;2023-08-31T16:04:44;22.20;99.90
9223;DHT22;7557;51.698;3.942;2023-08-31T16:07:14;22.10;99.90
9223;DHT22;7557;51.698;3.942;2023-08-31T16:09:41;22.20;99.90